Airfield :
LOGIN :

Register | Disclaimer

   EN    FR    IT 

 










Legend :    VFR   Marginal VFR   IFR   Intensive IFR   Very Intensive IFR
Visi :
Ceiling :
>= 8 km
>= 3000ft
5 to 8 km
1000 to 3000 ft
1500m to 5 km
500 to 1000 ft
800 to 1500m
200 to 500 ft
< 800m
< 200 ft
Symbols :   Thunderstorms  Fog  Heavy snow  Heavy precipitations  Wind > 20 kt
SIGMETs :     Misc.  Thunderstorms  Icing  Turbulence  Mountain Waves  Volcanic Ashes







- Airport Elevation : 1058 ft
- IATA code : SCN


EDDR - Saarbrücken

CURRENT METAR :
  • 151250Z 09007KT 050V130 0750 R27/1400N -DZ FG OVC001 05/05 Q1026 TEMPO 1200 BR

EXPIRED METARs :
  • 151220Z 09008KT 0750 R27/1100N -DZ FG OVC001 05/05 Q1026 TEMPO 1200 BR
  • 151150Z 09008KT 0750 R27/1100V1900D -DZ FG OVC001 05/05 Q1026 TEMPO 1200 BR
  • 151120Z 08007KT 0750 R27/0900V1500U FG BKN001 05/04 Q1026 TEMPO 1200 BR
  • 151050Z 10008KT 0800 R27/0900V1300U FG BKN001 05/04 Q1026 NOSIG
  • 151020Z 10006KT 070V130 0550 R27/0900N FG VV/// 04/04 Q1026 BECMG 0800 BKN001

TAF TAF EDDR
Valid from the 15 at 12:00 until the 16 at 12:00 UTC


151100Z 1512/1612 07007KT 0500 FG OVC001
TEMPO 1512/1518 3500 BR BKN005
TEMPO 1518/1609 0100 FG
BECMG 1611/1612 SCT005
No reported NOTAMs for that airfield.



MET'MAP, your aeronautical weather chart ! - Copyright ORBIFLY December 2007 - Disclaimer

ORBIFLY MET'MAP TEAM :

Programming & Development : Alexandra Zaïnal
Concept & Development : Baudouin d'Aumeries
Co-Development & Prog : Marc-Olivier Méhu
Technical & hardware support : Manuel Goepfert

Contact : metmap@orbifly.com




SOURCES & CREDITS :

   NOAA